createdAt,value
2022-12-08T00:00:00.885Z,70.67
2022-12-08T00:02:27.655Z,79.33
2022-12-08T00:05:13.191Z,60.87
2022-12-08T00:07:58.521Z,67.93
2022-12-08T00:10:48.319Z,64.30
2022-12-08T00:13:11.601Z,78.30
2022-12-08T00:15:38.180Z,75.13
2022-12-08T00:18:05.008Z,64.20
2022-12-08T00:20:31.563Z,64.23
2022-12-08T00:22:58.213Z,61.87
2022-12-08T00:25:24.766Z,53.83
2022-12-08T00:27:51.298Z,59.13
2022-12-08T00:30:17.866Z,62.03
2022-12-08T00:32:44.664Z,62.53
2022-12-08T00:35:11.210Z,63.23
2022-12-08T00:37:37.770Z,61.87
2022-12-08T00:40:04.729Z,59.83
2022-12-08T00:42:31.571Z,55.90
2022-12-08T00:44:58.466Z,57.60
2022-12-08T00:47:25.304Z,56.67
2022-12-08T00:49:51.995Z,64.57
2022-12-08T00:52:18.570Z,58.90
2022-12-08T00:54:45.077Z,57.40
2022-12-08T00:57:11.763Z,60.53
2022-12-08T00:59:38.311Z,63.57
2022-12-08T01:02:05.886Z,57.63
2022-12-08T01:04:32.525Z,55.00
2022-12-08T01:06:59.232Z,65.17
2022-12-08T01:09:26.710Z,55.17
2022-12-08T01:11:53.258Z,62.60
2022-12-08T01:14:19.834Z,51.93
2022-12-08T01:16:46.460Z,57.87
2022-12-08T01:19:13.845Z,51.17
2022-12-08T01:21:41.044Z,51.37
2022-12-08T01:24:10.399Z,44.13
2022-12-08T01:26:37.007Z,51.37
2022-12-08T01:29:03.594Z,40.07
2022-12-08T01:31:30.146Z,44.47
2022-12-08T01:33:56.982Z,40.60
2022-12-08T01:36:23.634Z,40.20
2022-12-08T01:38:50.713Z,37.63
2022-12-08T01:41:18.807Z,49.07
2022-12-08T01:43:56.628Z,38.93
2022-12-08T01:46:23.754Z,33.13
2022-12-08T01:48:55.735Z,40.37
2022-12-08T01:51:22.986Z,35.43
2022-12-08T01:53:50.066Z,37.37
2022-12-08T01:56:20.862Z,32.93
2022-12-08T01:58:49.661Z,35.50
2022-12-08T02:01:16.609Z,37.07
2022-12-08T02:03:45.869Z,35.40
2022-12-08T02:06:12.546Z,27.23
2022-12-08T02:08:40.337Z,27.93
2022-12-08T02:11:10.842Z,34.20
2022-12-08T02:13:37.902Z,32.13
2022-12-08T02:16:12.337Z,20.37
2022-12-08T02:19:07.969Z,30.90
2022-12-08T02:21:51.334Z,29.43
2022-12-08T02:24:22.879Z,32.10
2022-12-08T02:26:52.484Z,22.80
2022-12-08T02:29:18.958Z,25.23
2022-12-08T02:32:08.822Z,31.80
2022-12-08T02:34:35.369Z,34.33
2022-12-08T02:37:10.926Z,30.27
2022-12-08T02:39:43.470Z,32.37
2022-12-08T02:42:30.205Z,32.70
2022-12-08T02:44:59.729Z,29.47
2022-12-08T02:47:27.635Z,34.60
2022-12-08T02:49:55.102Z,27.17
2022-12-08T02:52:21.766Z,38.17
2022-12-08T02:54:53.212Z,27.40
2022-12-08T02:57:22.889Z,26.03
2022-12-08T02:59:56.502Z,33.13
2022-12-08T03:02:23.174Z,29.93
2022-12-08T03:04:56.232Z,34.17
2022-12-08T03:07:25.728Z,30.20
2022-12-08T03:09:59.613Z,33.17
2022-12-08T03:12:30.561Z,35.43
2022-12-08T03:14:59.784Z,29.47
2022-12-08T03:17:27.465Z,31.10
2022-12-08T03:19:54.454Z,34.17
2022-12-08T03:22:22.534Z,31.17
2022-12-08T03:24:49.428Z,31.90
2022-12-08T03:27:19.526Z,25.17
2022-12-08T03:29:47.149Z,42.67
2022-12-08T03:32:20.249Z,32.53
2022-12-08T03:34:47.902Z,34.60
2022-12-08T03:37:14.638Z,35.17
2022-12-08T03:39:41.394Z,42.40
2022-12-08T03:42:07.940Z,37.80
2022-12-08T03:44:34.564Z,28.13
2022-12-08T03:47:01.036Z,45.10
2022-12-08T03:49:27.643Z,43.97
2022-12-08T03:51:54.223Z,40.70
2022-12-08T03:54:20.839Z,43.77
2022-12-08T03:56:47.516Z,48.27
2022-12-08T03:59:14.450Z,43.37
2022-12-08T04:01:41.029Z,47.10
2022-12-08T04:04:07.803Z,53.57
2022-12-08T04:06:34.400Z,48.47
2022-12-08T04:09:00.971Z,54.40
2022-12-08T04:11:27.475Z,60.53
2022-12-08T04:13:54.050Z,67.73
2022-12-08T04:16:22.349Z,53.40
2022-12-08T04:18:48.951Z,63.27
2022-12-08T04:21:15.602Z,68.90
2022-12-08T04:23:42.122Z,67.40
2022-12-08T04:26:09.272Z,74.83
2022-12-08T04:28:35.952Z,65.63
2022-12-08T04:31:02.772Z,82.27
2022-12-08T04:33:29.448Z,73.23
2022-12-08T04:35:56.113Z,78.60
2022-12-08T04:38:22.817Z,68.07
2022-12-08T04:40:49.358Z,69.43
2022-12-08T04:43:15.934Z,73.23
2022-12-08T04:45:42.985Z,72.97
2022-12-08T04:48:12.173Z,60.40
2022-12-08T04:50:41.699Z,66.53
2022-12-08T04:53:09.120Z,68.33
2022-12-08T04:55:38.077Z,60.30
2022-12-08T04:58:04.724Z,60.93
2022-12-08T05:00:31.342Z,68.20
2022-12-08T05:02:58.028Z,49.23
2022-12-08T05:05:24.662Z,62.33
2022-12-08T05:07:51.304Z,65.20
2022-12-08T05:10:17.896Z,56.20
2022-12-08T05:12:44.490Z,51.23
2022-12-08T05:15:11.137Z,69.20
2022-12-08T05:17:37.752Z,56.47
2022-12-08T05:20:05.094Z,59.77
2022-12-08T05:22:31.952Z,58.97
2022-12-08T05:24:58.587Z,59.23
2022-12-08T05:27:25.122Z,53.30
2022-12-08T05:29:51.719Z,52.70
2022-12-08T05:32:18.283Z,67.00
2022-12-08T05:34:44.869Z,56.30
2022-12-08T05:37:11.537Z,54.63
2022-12-08T05:39:38.128Z,52.43
2022-12-08T05:42:04.786Z,56.00
2022-12-08T05:44:31.367Z,62.27
2022-12-08T05:46:57.950Z,60.67
2022-12-08T05:49:24.534Z,57.93
2022-12-08T05:51:51.111Z,61.80
2022-12-08T05:54:17.691Z,56.97
2022-12-08T05:56:44.296Z,53.77
2022-12-08T05:59:10.897Z,62.47
2022-12-08T06:01:37.601Z,61.50
2022-12-08T06:04:04.318Z,60.60
2022-12-08T06:06:31.110Z,54.20
2022-12-08T06:08:57.668Z,56.37
2022-12-08T06:11:25.815Z,49.80
2022-12-08T06:13:52.464Z,64.50
2022-12-08T06:16:19.154Z,49.27
2022-12-08T06:18:45.827Z,57.47
2022-12-08T06:21:13.569Z,56.33
2022-12-08T06:23:40.129Z,46.23
2022-12-08T06:26:09.156Z,44.40
2022-12-08T06:28:36.020Z,47.27
2022-12-08T06:31:32.139Z,56.00
2022-12-08T06:33:58.830Z,56.60
2022-12-08T06:36:26.481Z,62.43
2022-12-08T06:38:53.270Z,54.43
2022-12-08T06:41:19.917Z,53.23
2022-12-08T06:43:46.823Z,49.47
2022-12-08T06:46:14.796Z,54.13
2022-12-08T06:48:41.524Z,57.03
2022-12-08T06:51:12.530Z,58.10
2022-12-08T06:53:39.489Z,64.07
2022-12-08T06:56:06.708Z,61.73
2022-12-08T06:58:34.085Z,46.70
2022-12-08T07:01:04.709Z,44.73
2022-12-08T07:03:31.390Z,65.27
2022-12-08T07:06:03.449Z,51.63
2022-12-08T07:08:30.898Z,52.67
2022-12-08T07:10:57.669Z,58.57
2022-12-08T07:13:24.290Z,53.33
2022-12-08T07:15:51.073Z,55.13
2022-12-08T07:18:17.805Z,64.30
2022-12-08T07:20:44.367Z,46.23
2022-12-08T07:23:10.988Z,67.70
2022-12-08T07:25:37.684Z,80.13
2022-12-08T07:28:08.043Z,50.97
2022-12-08T07:30:34.806Z,62.60
2022-12-08T07:33:02.502Z,69.77
2022-12-08T07:35:29.055Z,56.83
2022-12-08T07:37:55.675Z,64.83
2022-12-08T07:40:22.307Z,57.70
2022-12-08T07:42:48.886Z,57.33
2022-12-08T07:45:15.614Z,65.33
2022-12-08T07:47:42.459Z,40.27
2022-12-08T07:50:09.149Z,47.80
2022-12-08T07:52:36.073Z,50.33
2022-12-08T07:55:02.928Z,69.23
2022-12-08T07:57:29.494Z,48.40
2022-12-08T07:59:56.055Z,49.77
2022-12-08T08:02:25.212Z,51.97
2022-12-08T08:04:53.236Z,46.63
2022-12-08T08:07:20.091Z,43.40
2022-12-08T08:09:46.836Z,53.57
2022-12-08T08:15:00.404Z,40.03
2022-12-08T08:17:27.390Z,38.67
2022-12-08T08:19:54.118Z,39.93
2022-12-08T08:22:20.730Z,37.50
2022-12-08T08:24:47.359Z,35.17
2022-12-08T08:27:14.080Z,42.13
2022-12-08T08:29:43.753Z,36.47
2022-12-08T08:32:10.317Z,46.47
2022-12-08T08:34:36.936Z,37.20
2022-12-08T08:37:03.573Z,48.07
2022-12-08T08:39:31.821Z,37.20
2022-12-08T08:41:58.443Z,39.43
2022-12-08T08:44:25.081Z,35.37
2022-12-08T08:46:52.091Z,43.03
2022-12-08T08:49:18.786Z,28.80
2022-12-08T08:51:45.907Z,22.17
2022-12-08T08:54:12.472Z,18.70
2022-12-08T08:56:39.044Z,19.07
2022-12-08T08:59:05.590Z,14.13
2022-12-08T09:01:32.218Z,18.07
2022-12-08T09:03:58.895Z,17.37
2022-12-08T09:06:26.154Z,20.63
2022-12-08T09:08:52.785Z,23.40
2022-12-08T09:11:19.862Z,18.97
2022-12-08T09:13:50.127Z,23.83
2022-12-08T09:16:17.235Z,37.50
2022-12-08T09:18:43.893Z,27.80
2022-12-08T09:21:16.678Z,32.13
2022-12-08T09:23:43.370Z,42.97
2022-12-08T09:26:09.962Z,43.03
2022-12-08T09:28:36.831Z,43.33
2022-12-08T09:31:03.757Z,50.97
2022-12-08T09:33:30.423Z,51.50
2022-12-08T09:35:56.987Z,55.40
2022-12-08T09:38:23.595Z,44.37
2022-12-08T09:40:53.910Z,29.60
2022-12-08T09:43:39.186Z,39.77
2022-12-08T09:46:07.476Z,52.23
2022-12-08T09:48:43.183Z,42.50
2022-12-08T09:51:10.517Z,34.17
2022-12-08T09:53:42.343Z,27.23
2022-12-08T09:56:12.730Z,38.33
2022-12-08T09:58:39.294Z,30.73
2022-12-08T10:01:08.402Z,31.10
2022-12-08T10:03:34.982Z,29.77
2022-12-08T10:06:01.692Z,33.50
2022-12-08T10:08:41.899Z,31.40
2022-12-08T10:11:13.692Z,32.50
2022-12-08T10:13:52.223Z,35.23
2022-12-08T10:16:29.260Z,31.20
2022-12-08T10:19:00.304Z,37.40
2022-12-08T10:21:28.644Z,43.27
2022-12-08T10:24:01.254Z,26.80
2022-12-08T10:26:28.383Z,32.10
2022-12-08T10:29:01.187Z,24.70
2022-12-08T10:31:28.270Z,27.73
2022-12-08T10:34:00.308Z,44.80
2022-12-08T10:36:47.057Z,22.73
2022-12-08T10:39:32.719Z,27.87
2022-12-08T10:42:16.412Z,36.13
2022-12-08T10:44:59.744Z,42.57
2022-12-08T10:47:27.640Z,37.37
2022-12-08T10:50:13.132Z,34.70
2022-12-08T10:52:40.220Z,43.63
2022-12-08T10:55:17.212Z,41.20
2022-12-08T10:57:43.776Z,43.60
2022-12-08T11:00:14.409Z,46.87
2022-12-08T11:02:55.217Z,42.80
2022-12-08T11:05:23.056Z,40.70
2022-12-08T11:07:53.935Z,37.47
2022-12-08T11:10:27.107Z,30.73
2022-12-08T11:12:53.757Z,40.27
2022-12-08T11:15:20.587Z,29.13
2022-12-08T11:17:59.454Z,30.90
2022-12-08T11:20:25.978Z,31.00
2022-12-08T11:22:54.168Z,34.63
2022-12-08T11:25:22.782Z,37.63
2022-12-08T11:27:50.587Z,29.83
2022-12-08T11:30:54.524Z,27.13
2022-12-08T11:33:22.656Z,33.63
2022-12-08T11:36:04.459Z,31.23
2022-12-08T11:38:31.948Z,23.63
2022-12-08T11:41:03.249Z,33.10
2022-12-08T11:43:52.821Z,36.60
2022-12-08T11:46:27.540Z,31.53
2022-12-08T11:49:04.364Z,32.60
2022-12-08T11:51:38.011Z,25.87
2022-12-08T11:54:14.140Z,24.80
2022-12-08T11:56:46.001Z,26.23
2022-12-08T11:59:22.835Z,22.37
2022-12-08T12:01:49.663Z,18.67
2022-12-08T12:04:26.316Z,25.60
2022-12-08T12:07:25.845Z,18.50
2022-12-08T12:10:08.421Z,28.13
2022-12-08T12:12:40.098Z,23.10
2022-12-08T12:15:12.865Z,19.63
2022-12-08T12:17:58.329Z,24.90
2022-12-08T12:20:34.431Z,26.17
2022-12-08T12:23:07.377Z,23.33
2022-12-08T12:25:35.554Z,20.20
2022-12-08T12:28:03.636Z,24.00
2022-12-08T12:30:48.394Z,28.43
2022-12-08T12:33:15.623Z,22.40
2022-12-08T12:35:43.285Z,32.93
2022-12-08T12:38:37.690Z,33.40
2022-12-08T12:41:05.418Z,20.23
2022-12-08T12:43:33.585Z,25.03
2022-12-08T12:46:19.204Z,21.13
2022-12-08T12:48:45.850Z,21.70
2022-12-08T12:51:35.734Z,18.57
2022-12-08T12:54:22.639Z,26.23
2022-12-08T12:56:56.378Z,21.13
2022-12-08T12:59:29.035Z,19.70
2022-12-08T13:01:55.615Z,19.97
2022-12-08T13:04:29.605Z,24.00
2022-12-08T13:06:56.327Z,29.73
2022-12-08T13:09:24.243Z,24.23
2022-12-08T13:11:53.206Z,21.47
2022-12-08T13:14:27.728Z,33.97
2022-12-08T13:16:56.235Z,29.73
2022-12-08T13:19:22.885Z,27.33
2022-12-08T13:21:49.429Z,29.73
2022-12-08T13:24:20.405Z,26.67
2022-12-08T13:26:50.983Z,28.40
2022-12-08T13:29:24.349Z,23.97
2022-12-08T13:32:00.749Z,22.60
2022-12-08T13:34:37.161Z,23.47
2022-12-08T13:37:16.095Z,33.63
2022-12-08T13:39:46.692Z,23.60
2022-12-08T13:42:13.420Z,28.93
2022-12-08T13:45:19.839Z,29.33
2022-12-08T13:47:41.480Z,24.77
2022-12-08T13:50:55.732Z,24.47
2022-12-08T13:58:51.387Z,22.47
2022-12-08T14:01:22.596Z,19.43
2022-12-08T14:04:22.033Z,24.27
2022-12-08T14:06:42.546Z,17.60
2022-12-08T14:09:16.034Z,23.27
2022-12-08T14:11:44.619Z,24.00
2022-12-08T14:14:38.930Z,25.87
2022-12-08T14:17:17.358Z,17.17
2022-12-08T14:19:45.148Z,21.43
2022-12-08T14:22:13.675Z,24.00
2022-12-08T14:24:40.758Z,35.00
2022-12-08T14:27:08.307Z,26.20
2022-12-08T14:29:38.399Z,28.50
2022-12-08T14:32:26.341Z,19.50
2022-12-08T14:34:57.638Z,18.47
2022-12-08T14:37:25.921Z,18.77
2022-12-08T14:39:53.194Z,26.60
2022-12-08T14:42:24.637Z,19.57
2022-12-08T14:45:02.217Z,22.70
2022-12-08T14:47:30.021Z,15.07
2022-12-08T14:49:57.445Z,24.70
2022-12-08T14:52:24.598Z,18.10
2022-12-08T14:54:51.658Z,22.27
2022-12-08T14:57:18.250Z,21.30
2022-12-08T14:59:46.087Z,20.07
2022-12-08T15:02:15.674Z,21.80
2022-12-08T15:04:44.166Z,17.37
2022-12-08T15:07:15.476Z,22.10
2022-12-08T15:09:43.432Z,20.27
2022-12-08T15:12:13.023Z,21.23
2022-12-08T15:15:16.104Z,22.13
2022-12-08T15:17:58.037Z,24.83
2022-12-08T15:20:33.344Z,20.47
2022-12-08T15:23:02.085Z,29.53
2022-12-08T15:25:28.717Z,26.43
2022-12-08T15:27:57.017Z,18.70
2022-12-08T15:30:26.251Z,21.17
2022-12-08T15:32:54.110Z,23.30
2022-12-08T15:35:21.356Z,28.10
2022-12-08T15:37:48.031Z,22.30
2022-12-08T15:40:18.834Z,20.07
2022-12-08T15:42:45.454Z,16.47
2022-12-08T15:45:13.775Z,23.30
2022-12-08T15:47:41.298Z,18.50
2022-12-08T15:50:14.111Z,26.13
2022-12-08T15:52:40.681Z,19.80
2022-12-08T15:55:07.330Z,18.50
2022-12-08T15:58:30.890Z,17.70
2022-12-08T16:00:51.173Z,30.80
2022-12-08T16:03:51.603Z,26.97
2022-12-08T16:06:57.607Z,25.43
2022-12-08T16:09:06.311Z,27.50
2022-12-08T16:12:06.627Z,30.20
2022-12-08T16:15:39.093Z,28.70
2022-12-08T16:17:21.275Z,23.53
2022-12-08T16:19:49.144Z,23.33
2022-12-08T16:22:51.619Z,29.57
2022-12-08T16:25:17.693Z,27.13
2022-12-08T16:28:08.296Z,25.83
2022-12-08T16:30:31.766Z,33.53
2022-12-08T16:32:58.262Z,30.97
2022-12-08T16:35:24.959Z,24.57
2022-12-08T16:37:51.577Z,37.53
2022-12-08T16:40:18.165Z,19.67
2022-12-08T16:42:45.794Z,25.30
2022-12-08T16:45:18.368Z,22.43
2022-12-08T16:47:49.702Z,25.63
2022-12-08T16:50:16.322Z,31.07
2022-12-08T16:52:43.193Z,40.63
2022-12-08T16:55:10.940Z,33.43
2022-12-08T16:57:37.469Z,24.93
2022-12-08T17:00:06.675Z,24.63
2022-12-08T17:02:33.868Z,33.03
2022-12-08T17:05:00.458Z,30.90
2022-12-08T17:07:27.287Z,29.73
2022-12-08T17:09:53.753Z,20.13
2022-12-08T17:12:20.448Z,27.87
2022-12-08T17:14:46.985Z,16.13
2022-12-08T17:17:13.532Z,22.50
2022-12-08T17:19:40.052Z,15.93
2022-12-08T17:22:06.654Z,36.10
2022-12-08T17:24:33.230Z,20.90
2022-12-08T17:27:06.698Z,27.23
2022-12-08T17:29:33.888Z,25.47
2022-12-08T17:32:00.480Z,19.53
2022-12-08T17:34:27.090Z,14.87
2022-12-08T17:36:53.707Z,23.63
2022-12-08T17:39:20.231Z,20.53
2022-12-08T17:41:47.606Z,21.60
2022-12-08T17:44:16.211Z,19.53
2022-12-08T17:46:47.671Z,13.77
2022-12-08T17:49:19.968Z,16.10
2022-12-08T17:51:50.622Z,19.50
2022-12-08T17:54:17.643Z,26.97
2022-12-08T17:56:44.350Z,17.03
2022-12-08T17:59:11.870Z,17.67
2022-12-08T18:01:39.142Z,28.20
2022-12-08T18:04:06.410Z,18.63
2022-12-08T18:06:33.312Z,19.53
2022-12-08T18:09:00.660Z,26.23
2022-12-08T18:11:28.845Z,17.37
2022-12-08T18:13:55.785Z,21.40
2022-12-08T18:16:23.718Z,21.70
2022-12-08T18:18:50.501Z,22.27
2022-12-08T18:21:23.091Z,23.10
2022-12-08T18:23:51.086Z,18.50
2022-12-08T18:26:17.956Z,23.93
2022-12-08T18:28:44.641Z,21.47
2022-12-08T18:31:12.511Z,24.53
2022-12-08T18:33:39.928Z,26.07
2022-12-08T18:36:07.559Z,26.07
2022-12-08T18:38:34.084Z,16.30
2022-12-08T18:41:21.414Z,23.43
2022-12-08T18:43:48.035Z,24.30
2022-12-08T18:46:14.978Z,27.70
2022-12-08T18:48:47.185Z,26.93
2022-12-08T18:51:15.266Z,19.43
2022-12-08T18:53:42.445Z,30.30
2022-12-08T18:56:09.107Z,26.20
2022-12-08T18:58:35.966Z,26.77
2022-12-08T19:01:02.890Z,29.10
2022-12-08T19:03:29.649Z,21.23
2022-12-08T19:06:03.657Z,19.47
2022-12-08T19:08:31.718Z,21.33
2022-12-08T19:10:58.583Z,18.77
2022-12-08T19:13:27.285Z,23.93
2022-12-08T19:15:54.131Z,29.67
2022-12-08T19:18:20.893Z,28.60
2022-12-08T19:20:47.499Z,26.67
2022-12-08T19:23:14.978Z,28.23
2022-12-08T19:25:41.736Z,33.90
2022-12-08T19:28:08.431Z,30.40
2022-12-08T19:30:35.057Z,24.40
2022-12-08T19:33:01.646Z,32.93
2022-12-08T19:35:28.199Z,28.67
2022-12-08T19:37:55.077Z,35.03
2022-12-08T19:40:40.655Z,27.43
2022-12-08T19:43:33.352Z,31.37
2022-12-08T19:46:00.067Z,19.77
2022-12-08T19:48:26.907Z,26.40
2022-12-08T19:50:53.427Z,24.70
2022-12-08T19:53:20.823Z,24.17
2022-12-08T19:55:47.650Z,22.87
2022-12-08T19:58:14.231Z,32.33
2022-12-08T20:00:41.422Z,26.43
2022-12-08T20:03:08.086Z,26.30
2022-12-08T20:05:35.643Z,24.37
2022-12-08T20:08:02.231Z,28.93
2022-12-08T20:10:33.787Z,28.10
2022-12-08T20:13:19.152Z,35.20
2022-12-08T20:15:46.404Z,29.67
2022-12-08T20:18:13.562Z,34.70
2022-12-08T20:20:40.136Z,29.70
2022-12-08T20:23:07.022Z,28.13
2022-12-08T20:25:33.665Z,28.37
2022-12-08T20:28:00.268Z,33.40
2022-12-08T20:30:26.797Z,32.17
2022-12-08T20:32:53.368Z,31.23
2022-12-08T20:35:19.958Z,37.80
2022-12-08T20:37:49.197Z,29.37
2022-12-08T20:40:16.038Z,48.23
2022-12-08T20:42:42.691Z,28.43
2022-12-08T20:45:09.910Z,31.67
2022-12-08T20:47:36.886Z,38.20
2022-12-08T20:50:04.680Z,27.03
2022-12-08T20:52:31.939Z,27.80
2022-12-08T20:54:58.610Z,28.73
2022-12-08T20:57:25.271Z,29.90
2022-12-08T20:59:51.960Z,34.60
2022-12-08T21:02:18.487Z,27.63
2022-12-08T21:04:45.230Z,30.10
2022-12-08T21:07:12.388Z,36.90
2022-12-08T21:09:39.319Z,59.42
2022-12-08T21:12:06.378Z,28.50
2022-12-08T21:14:33.748Z,46.77
2022-12-08T21:17:00.519Z,43.27
2022-12-08T21:19:27.457Z,49.30
2022-12-08T21:21:54.123Z,50.60
2022-12-08T21:24:21.027Z,46.10
2022-12-08T21:26:47.760Z,47.20
2022-12-08T21:29:14.599Z,57.45
2022-12-08T21:31:41.381Z,54.88
2022-12-08T21:34:08.275Z,40.63
2022-12-08T21:36:35.119Z,53.20
2022-12-08T21:39:02.848Z,44.00
2022-12-08T21:41:48.651Z,55.42
2022-12-08T21:44:18.655Z,38.80
2022-12-08T21:46:45.632Z,46.57
2022-12-08T21:49:12.628Z,45.60
2022-12-08T21:51:41.870Z,43.00
2022-12-08T21:54:12.087Z,43.10
2022-12-08T21:56:47.357Z,30.83
2022-12-08T21:59:14.127Z,50.70
2022-12-08T22:01:43.410Z,35.13
2022-12-08T22:04:10.756Z,61.87
2022-12-08T22:06:37.551Z,54.00
2022-12-08T22:09:04.665Z,53.30
2022-12-08T22:11:31.224Z,50.80
2022-12-08T22:13:57.998Z,57.07
2022-12-08T22:16:24.768Z,52.85
2022-12-08T22:18:51.331Z,52.17
2022-12-08T22:21:18.023Z,56.40
2022-12-08T22:23:44.909Z,55.93
2022-12-08T22:26:12.136Z,46.13
2022-12-08T22:28:39.820Z,49.73
2022-12-08T22:31:09.633Z,41.92
2022-12-08T22:33:36.677Z,54.90
2022-12-08T22:36:10.192Z,54.93
2022-12-08T22:38:37.847Z,65.07
2022-12-08T22:41:05.072Z,51.40
2022-12-08T22:43:31.772Z,45.88
2022-12-08T22:45:58.837Z,51.10
2022-12-08T22:48:25.503Z,43.67
2022-12-08T22:50:52.100Z,46.38
2022-12-08T22:53:19.023Z,48.13
2022-12-08T22:55:46.329Z,40.97
2022-12-08T22:58:13.094Z,46.20
2022-12-08T23:00:39.701Z,45.03
2022-12-08T23:03:06.958Z,46.60
2022-12-08T23:05:34.538Z,58.28
2022-12-08T23:08:01.309Z,57.60
2022-12-08T23:10:28.384Z,46.78
2022-12-08T23:12:56.879Z,44.45
2022-12-08T23:15:27.698Z,50.40
2022-12-08T23:17:54.515Z,54.20
2022-12-08T23:20:21.260Z,65.65
2022-12-08T23:22:47.802Z,59.50
2022-12-08T23:25:14.449Z,69.60
2022-12-08T23:27:41.191Z,59.78
2022-12-08T23:30:08.436Z,61.65
2022-12-08T23:32:35.322Z,68.63
2022-12-08T23:35:02.969Z,66.18
2022-12-08T23:37:29.575Z,69.18
2022-12-08T23:39:56.182Z,65.03
2022-12-08T23:42:22.919Z,67.78
2022-12-08T23:44:49.527Z,69.60
2022-12-08T23:47:16.288Z,75.25
2022-12-08T23:49:43.189Z,64.45
2022-12-08T23:52:11.837Z,69.32
2022-12-08T23:54:38.704Z,76.18
2022-12-08T23:57:05.426Z,74.57
2022-12-08T23:59:32.158Z,82.45
